Powell, Nebraska
Current Conditions -  °F | °C
As of 10:15 PM on Wednesday 22 Oct 2014 (Local Time) from KHJH Reporting Station
Broken Clouds Broken Clouds  
Wind Chill: 62°   Ceiling: 5000
Heat Index: 62°   Visibility: 10mi
Dew Point: 57°   Wind: 9mph
Humidity: 86%   Direction: 180°S
Pressure: 30.05"   Gusts: NA
Location:  40.1696°N, 97.2152°W
Report Text: KHJH 230315Z AUTO 18008KT 10SM BKN050 BKN065 17/14 A3005 RMK AO2 LTG DSNT SW T01650141
Loading
Personal Weather Stations






























Interactive Weather Map
Tropical Storm Tracking
New forecast layout! Learn more

10-Day Weather Forecast

Advertisements
Track Severe Weather on mobile